VRG862 SBGL-KJFK
Flight info
| Callsign | VRG862 |
|---|---|
| Flight time | N/A |
| Altitude | 30000 |
| Route | EDNAM UM409 PAPAK/N0500F310 DCT SAVPU DCT MUGVI/N0498F320 DCT DAMSI DCT NIRNA UL776 KORTO/N0491F340 UL329 ZPATA DCT PJM L461 OPAUL/M082F340 L461 BRKZZ/M082F360 L461 GECAL DCT DASER L459 SAVIK/N0474F360 Y486 MOUGH Y495 CAMRN |
| Aircraft | MD11/H-SDE1E2E3FGHIJ2J3J4J5M1RWXY/LB1D1 |
Departure
| Time | 2026-04-29 04:41 |
|---|---|
| Airport | Rio Galeão – Tom Jobim International Airport (SBGL) |
Arrival
| Time | N/A |
|---|---|
| Airport | John F. Kennedy International Airport (KJFK) |
| Time | Latitude | Longitude | Altitude | Speed | Heading |
|---|---|---|---|---|---|
| 2026-04-29 03:33 | -22.81458 | -43.24831 | 29 ft | 0 kts | 72° |
| 2026-04-29 04:22 | -22.81462 | -43.24847 | 29 ft | 4 kts | 73° |
| 2026-04-29 04:22 | -22.81471 | -43.24874 | 29 ft | 4 kts | 64° |
| 2026-04-29 04:22 | -22.81484 | -43.24897 | 29 ft | 4 kts | 34° |
| 2026-04-29 04:23 | -22.81504 | -43.24909 | 29 ft | 4 kts | 13° |
| 2026-04-29 04:23 | -22.81525 | -43.24911 | 29 ft | 4 kts | 332° |
| 2026-04-29 04:23 | -22.81542 | -43.24895 | 29 ft | 4 kts | 303° |
| 2026-04-29 04:23 | -22.81557 | -43.24874 | 29 ft | 3 kts | 325° |
| 2026-04-29 04:24 | -22.81577 | -43.24857 | 28 ft | 4 kts | 313° |
| 2026-04-29 04:24 | -22.81593 | -43.24835 | 29 ft | 4 kts | 298° |
| 2026-04-29 04:24 | -22.81606 | -43.24809 | 28 ft | 4 kts | 301° |
| 2026-04-29 04:24 | -22.81610 | -43.24801 | 29 ft | 0 kts | 305° |
| 2026-04-29 04:29 | -22.81605 | -43.24809 | 29 ft | 2 kts | 305° |
| 2026-04-29 04:29 | -22.81592 | -43.24829 | 29 ft | 4 kts | 305° |
| 2026-04-29 04:29 | -22.81573 | -43.24857 | 29 ft | 6 kts | 310° |
| 2026-04-29 04:29 | -22.81535 | -43.24898 | 29 ft | 9 kts | 311° |
| 2026-04-29 04:30 | -22.81503 | -43.24956 | 27 ft | 9 kts | 300° |
| 2026-04-29 04:30 | -22.81483 | -43.25016 | 29 ft | 8 kts | 268° |
| 2026-04-29 04:30 | -22.81560 | -43.25099 | 29 ft | 8 kts | 215° |
| 2026-04-29 04:31 | -22.81607 | -43.25136 | 27 ft | 8 kts | 221° |
| 2026-04-29 04:31 | -22.81606 | -43.25186 | 29 ft | 8 kts | 294° |
| 2026-04-29 04:31 | -22.81572 | -43.25243 | 29 ft | 10 kts | 306° |
| 2026-04-29 04:31 | -22.81526 | -43.25313 | 29 ft | 13 kts | 306° |
| 2026-04-29 04:32 | -22.81468 | -43.25399 | 28 ft | 15 kts | 306° |
| 2026-04-29 04:32 | -22.81402 | -43.25499 | 28 ft | 17 kts | 305° |
| 2026-04-29 04:32 | -22.81331 | -43.25607 | 28 ft | 17 kts | 306° |
| 2026-04-29 04:32 | -22.81263 | -43.25710 | 29 ft | 16 kts | 306° |
| 2026-04-29 04:33 | -22.81200 | -43.25804 | 28 ft | 11 kts | 306° |
| 2026-04-29 04:33 | -22.81164 | -43.25858 | 27 ft | 7 kts | 306° |
| 2026-04-29 04:33 | -22.81138 | -43.25898 | 27 ft | 7 kts | 306° |
| 2026-04-29 04:33 | -22.81103 | -43.25928 | 29 ft | 5 kts | 350° |
| 2026-04-29 04:34 | -22.81071 | -43.25917 | 28 ft | 5 kts | 27° |
| 2026-04-29 04:34 | -22.81027 | -43.25884 | 30 ft | 10 kts | 35° |
| 2026-04-29 04:34 | -22.80959 | -43.25832 | 30 ft | 14 kts | 36° |
| 2026-04-29 04:34 | -22.80871 | -43.25765 | 30 ft | 16 kts | 36° |
| 2026-04-29 04:35 | -22.80783 | -43.25696 | 33 ft | 14 kts | 36° |
| 2026-04-29 04:35 | -22.80700 | -43.25632 | 32 ft | 15 kts | 35° |
| 2026-04-29 04:35 | -22.80618 | -43.25570 | 33 ft | 7 kts | 35° |
| 2026-04-29 04:35 | -22.80584 | -43.25544 | 33 ft | 6 kts | 36° |
| 2026-04-29 04:36 | -22.80567 | -43.25530 | 36 ft | 0 kts | 35° |
| 2026-04-29 04:36 | -22.80561 | -43.25526 | 35 ft | 1 kts | 35° |
| 2026-04-29 04:36 | -22.80535 | -43.25503 | 38 ft | 9 kts | 40° |
| 2026-04-29 04:36 | -22.80491 | -43.25458 | 36 ft | 8 kts | 44° |
| 2026-04-29 04:37 | -22.80442 | -43.25427 | 35 ft | 7 kts | 358° |
| 2026-04-29 04:37 | -22.80396 | -43.25447 | 36 ft | 7 kts | 323° |
| 2026-04-29 04:37 | -22.80359 | -43.25477 | 35 ft | 7 kts | 323° |
| 2026-04-29 04:37 | -22.80318 | -43.25509 | 34 ft | 7 kts | 325° |
| 2026-04-29 04:38 | -22.80273 | -43.25519 | 33 ft | 7 kts | 10° |
| 2026-04-29 04:38 | -22.80237 | -43.25497 | 30 ft | 6 kts | 33° |
| 2026-04-29 04:38 | -22.80203 | -43.25487 | 32 ft | 5 kts | 353° |
| 2026-04-29 04:38 | -22.80182 | -43.25481 | 32 ft | 3 kts | 28° |
| 2026-04-29 04:39 | -22.80177 | -43.25473 | 32 ft | 0 kts | 64° |
| 2026-04-29 04:39 | -22.80178 | -43.25470 | 32 ft | 0 kts | 75° |
| 2026-04-29 04:40 | -22.80176 | -43.25463 | 32 ft | 5 kts | 75° |
| 2026-04-29 04:40 | -22.80131 | -43.25289 | 32 ft | 57 kts | 74° |
| 2026-04-29 04:41 | -22.79954 | -43.24610 | 40 ft | 127 kts | 74° |
| 2026-04-29 04:41 | -22.79659 | -43.23475 | 36 ft | 182 kts | 74° |
| 2026-04-29 04:41 | -22.79292 | -43.22087 | 376 ft | 192 kts | 75° |
| 2026-04-29 04:41 | -22.78971 | -43.20680 | 1072 ft | 193 kts | 78° |
| 2026-04-29 04:42 | -22.78673 | -43.19246 | 1439 ft | 203 kts | 78° |
| 2026-04-29 04:42 | -22.78351 | -43.17672 | 1631 ft | 225 kts | 78° |
| 2026-04-29 04:42 | -22.77995 | -43.15940 | 1878 ft | 245 kts | 78° |
| 2026-04-29 04:42 | -22.77609 | -43.14097 | 2268 ft | 255 kts | 78° |
| 2026-04-29 04:43 | -22.77207 | -43.12215 | 2883 ft | 257 kts | 77° |
| 2026-04-29 04:43 | -22.76941 | -43.10975 | 3459 ft | 254 kts | 76° |
| 2026-04-29 04:43 | -22.76535 | -43.09080 | 4185 ft | 260 kts | 75° |
| 2026-04-29 04:43 | -22.76115 | -43.07148 | 4863 ft | 266 kts | 75° |
| 2026-04-29 04:44 | -22.75540 | -43.04548 | 5820 ft | 270 kts | 75° |
| 2026-04-29 04:44 | -22.75241 | -43.03204 | 6233 ft | 274 kts | 75° |
| 2026-04-29 04:44 | -22.74544 | -43.01299 | 6775 ft | 274 kts | 51° |
| 2026-04-29 04:44 | -22.73084 | -43.00020 | 7393 ft | 274 kts | 21° |
| 2026-04-29 04:45 | -22.71237 | -42.99703 | 7892 ft | 280 kts | 355° |
| 2026-04-29 04:45 | -22.69307 | -43.00193 | 8293 ft | 287 kts | 341° |
| 2026-04-29 04:45 | -22.67419 | -43.00941 | 8878 ft | 289 kts | 341° |
| 2026-04-29 04:45 | -22.65504 | -43.01656 | 9430 ft | 294 kts | 342° |
| 2026-04-29 04:46 | -22.63553 | -43.02371 | 9963 ft | 297 kts | 341° |
| 2026-04-29 04:46 | -22.61538 | -43.03112 | 10169 ft | 314 kts | 341° |
| 2026-04-29 04:46 | -22.59446 | -43.03890 | 10296 ft | 331 kts | 341° |
| 2026-04-29 04:46 | -22.57220 | -43.04735 | 10444 ft | 347 kts | 341° |
| 2026-04-29 04:47 | -22.54888 | -43.05635 | 10562 ft | 362 kts | 340° |
| 2026-04-29 04:47 | -22.52467 | -43.06578 | 10696 ft | 376 kts | 340° |
| 2026-04-29 04:47 | -22.49968 | -43.07555 | 10825 ft | 388 kts | 340° |
| 2026-04-29 04:47 | -22.47394 | -43.08562 | 10959 ft | 398 kts | 340° |
| 2026-04-29 04:48 | -22.44750 | -43.09599 | 11088 ft | 409 kts | 340° |
| 2026-04-29 04:48 | -22.42086 | -43.10644 | 11327 ft | 415 kts | 340° |
| 2026-04-29 04:48 | -22.39512 | -43.11654 | 11666 ft | 418 kts | 340° |
| 2026-04-29 04:48 | -22.36776 | -43.12730 | 12053 ft | 420 kts | 340° |
| 2026-04-29 04:49 | -22.34021 | -43.13815 | 12439 ft | 422 kts | 340° |
| 2026-04-29 04:49 | -22.31296 | -43.14890 | 12810 ft | 423 kts | 340° |
| 2026-04-29 04:49 | -22.28525 | -43.15982 | 13186 ft | 424 kts | 340° |
| 2026-04-29 04:49 | -22.25742 | -43.17078 | 13561 ft | 426 kts | 340° |
| 2026-04-29 04:50 | -22.22949 | -43.18179 | 13903 ft | 428 kts | 340° |
| 2026-04-29 04:50 | -22.20146 | -43.19283 | 14304 ft | 430 kts | 340° |
| 2026-04-29 04:50 | -22.17330 | -43.20391 | 14850 ft | 432 kts | 339° |
| 2026-04-29 04:50 | -22.14542 | -43.21636 | 15387 ft | 434 kts | 334° |
| 2026-04-29 04:51 | -22.11856 | -43.23148 | 15918 ft | 436 kts | 330° |
| 2026-04-29 04:51 | -22.09214 | -43.24797 | 16456 ft | 439 kts | 329° |
| 2026-04-29 04:51 | -22.06617 | -43.26475 | 17005 ft | 441 kts | 328° |
| 2026-04-29 04:51 | -22.03980 | -43.28184 | 17556 ft | 443 kts | 329° |
| 2026-04-29 04:52 | -22.01322 | -43.29895 | 18080 ft | 446 kts | 329° |
| 2026-04-29 04:52 | -21.98631 | -43.31612 | 18577 ft | 450 kts | 329° |
| 2026-04-29 04:52 | -21.95921 | -43.33329 | 19049 ft | 453 kts | 329° |
| 2026-04-29 04:52 | -21.93220 | -43.35031 | 19549 ft | 456 kts | 329° |
| 2026-04-29 04:53 | -21.90470 | -43.36761 | 20074 ft | 459 kts | 329° |
| 2026-04-29 04:53 | -21.87707 | -43.38497 | 20576 ft | 461 kts | 329° |
| 2026-04-29 04:53 | -21.84930 | -43.40242 | 21091 ft | 463 kts | 329° |
| 2026-04-29 04:53 | -21.82131 | -43.41999 | 21557 ft | 466 kts | 329° |
| 2026-04-29 04:54 | -21.79321 | -43.43758 | 22055 ft | 468 kts | 328° |
| 2026-04-29 04:54 | -21.76493 | -43.45524 | 22480 ft | 472 kts | 328° |
| 2026-04-29 04:54 | -21.73640 | -43.47306 | 22939 ft | 474 kts | 328° |
| 2026-04-29 04:54 | -21.70781 | -43.49092 | 23405 ft | 476 kts | 328° |
| 2026-04-29 04:55 | -21.67906 | -43.50887 | 23790 ft | 479 kts | 328° |
| 2026-04-29 04:55 | -21.65020 | -43.52689 | 24080 ft | 481 kts | 328° |
| 2026-04-29 04:55 | -21.62118 | -43.54500 | 24334 ft | 481 kts | 328° |
| 2026-04-29 04:55 | -21.59223 | -43.56305 | 24614 ft | 481 kts | 328° |
| 2026-04-29 04:56 | -21.56371 | -43.58080 | 24896 ft | 479 kts | 328° |
| 2026-04-29 04:56 | -21.53483 | -43.59872 | 25237 ft | 479 kts | 328° |
| 2026-04-29 04:56 | -21.50594 | -43.61661 | 25703 ft | 477 kts | 328° |
| 2026-04-29 04:56 | -21.47722 | -43.63440 | 26187 ft | 476 kts | 328° |
| 2026-04-29 04:57 | -21.44857 | -43.65214 | 26657 ft | 474 kts | 328° |
| 2026-04-29 04:57 | -21.42004 | -43.66981 | 27119 ft | 472 kts | 328° |
| 2026-04-29 04:57 | -21.39163 | -43.68739 | 27579 ft | 471 kts | 328° |
| 2026-04-29 04:57 | -21.36326 | -43.70495 | 28043 ft | 469 kts | 328° |
| 2026-04-29 04:58 | -21.33494 | -43.72247 | 28491 ft | 468 kts | 328° |
| 2026-04-29 04:58 | -21.30707 | -43.73970 | 28878 ft | 467 kts | 328° |
| 2026-04-29 04:58 | -21.27890 | -43.75713 | 29253 ft | 466 kts | 328° |
| 2026-04-29 04:58 | -21.25100 | -43.77479 | 29628 ft | 464 kts | 327° |
| 2026-04-29 04:59 | -21.22330 | -43.79270 | 29964 ft | 464 kts | 327° |
| 2026-04-29 04:59 | -21.16835 | -43.82863 | 30081 ft | 466 kts | 326° |
| 2026-04-29 05:00 | -21.11286 | -43.86491 | 30127 ft | 468 kts | 326° |
| 2026-04-29 05:00 | -21.08510 | -43.88302 | 30458 ft | 467 kts | 327° |
| 2026-04-29 05:00 | -21.05733 | -43.90111 | 30769 ft | 466 kts | 327° |
| 2026-04-29 05:00 | -21.02960 | -43.91914 | 31040 ft | 467 kts | 327° |
| 2026-04-29 05:01 | -21.00220 | -43.93696 | 31327 ft | 466 kts | 327° |
| 2026-04-29 05:01 | -20.97447 | -43.95498 | 31585 ft | 467 kts | 327° |
| 2026-04-29 05:01 | -20.94669 | -43.97303 | 31831 ft | 467 kts | 327° |
| 2026-04-29 05:01 | -20.91895 | -43.99105 | 32051 ft | 467 kts | 327° |
| 2026-04-29 05:02 | -20.89113 | -44.00911 | 32123 ft | 467 kts | 326° |
| 2026-04-29 05:02 | -20.83564 | -44.04510 | 32124 ft | 466 kts | 326° |
| 2026-04-29 05:03 | -20.78036 | -44.08095 | 32120 ft | 466 kts | 326° |
| 2026-04-29 05:03 | -20.72488 | -44.11707 | 32134 ft | 467 kts | 326° |
| 2026-04-29 05:04 | -20.66942 | -44.15325 | 32136 ft | 467 kts | 326° |
| 2026-04-29 05:04 | -20.61388 | -44.18929 | 32140 ft | 468 kts | 327° |
| 2026-04-29 05:05 | -20.55811 | -44.22516 | 32136 ft | 468 kts | 327° |
| 2026-04-29 05:05 | -20.50227 | -44.26101 | 32144 ft | 468 kts | 327° |
| 2026-04-29 05:06 | -20.44632 | -44.29694 | 32146 ft | 469 kts | 327° |
| 2026-04-29 05:06 | -20.39034 | -44.33292 | 32148 ft | 470 kts | 327° |
| 2026-04-29 05:07 | -20.33462 | -44.36877 | 32146 ft | 470 kts | 327° |
| 2026-04-29 05:07 | -20.27859 | -44.40479 | 32146 ft | 470 kts | 327° |
| 2026-04-29 05:08 | -20.22257 | -44.44078 | 32145 ft | 470 kts | 327° |
| 2026-04-29 05:08 | -20.16691 | -44.47651 | 32148 ft | 470 kts | 327° |
| 2026-04-29 05:09 | -20.11084 | -44.51244 | 32147 ft | 470 kts | 327° |
| 2026-04-29 05:09 | -20.05508 | -44.54813 | 32146 ft | 469 kts | 327° |
| 2026-04-29 05:10 | -19.99906 | -44.58401 | 32150 ft | 469 kts | 327° |
| 2026-04-29 05:10 | -19.94301 | -44.61988 | 32146 ft | 471 kts | 327° |
| 2026-04-29 05:11 | -19.88706 | -44.65566 | 32144 ft | 472 kts | 327° |
| 2026-04-29 05:11 | -19.83080 | -44.69159 | 32146 ft | 472 kts | 327° |
| 2026-04-29 05:12 | -19.77441 | -44.72757 | 32155 ft | 472 kts | 327° |
| 2026-04-29 05:12 | -19.71811 | -44.76347 | 32151 ft | 471 kts | 327° |
| 2026-04-29 05:13 | -19.66217 | -44.79912 | 32154 ft | 472 kts | 327° |
| 2026-04-29 05:13 | -19.60586 | -44.83498 | 32148 ft | 472 kts | 327° |
| 2026-04-29 05:14 | -19.54951 | -44.87084 | 32146 ft | 472 kts | 327° |
| 2026-04-29 05:14 | -19.49319 | -44.90667 | 32147 ft | 471 kts | 327° |
| 2026-04-29 05:15 | -19.43726 | -44.94236 | 32155 ft | 472 kts | 327° |
| 2026-04-29 05:15 | -19.38106 | -44.97824 | 32155 ft | 471 kts | 327° |
| 2026-04-29 05:16 | -19.32475 | -45.01416 | 32156 ft | 471 kts | 327° |
| 2026-04-29 05:16 | -19.26856 | -45.04998 | 32156 ft | 472 kts | 327° |
| 2026-04-29 05:17 | -19.21226 | -45.08584 | 32160 ft | 472 kts | 327° |
| 2026-04-29 05:17 | -19.15627 | -45.12148 | 32154 ft | 472 kts | 327° |
| 2026-04-29 05:18 | -19.09993 | -45.15730 | 32153 ft | 473 kts | 327° |
| 2026-04-29 05:18 | -19.04346 | -45.19316 | 32146 ft | 473 kts | 327° |
| 2026-04-29 05:19 | -18.98695 | -45.22903 | 32149 ft | 473 kts | 328° |
| 2026-04-29 05:19 | -18.93054 | -45.26481 | 32146 ft | 473 kts | 328° |
| 2026-04-29 05:20 | -18.87434 | -45.30042 | 32147 ft | 474 kts | 328° |
| 2026-04-29 05:20 | -18.81773 | -45.33626 | 32157 ft | 474 kts | 328° |
| 2026-04-29 05:21 | -18.76097 | -45.37209 | 32156 ft | 475 kts | 328° |
| 2026-04-29 05:21 | -18.70436 | -45.40784 | 32155 ft | 475 kts | 328° |
| 2026-04-29 05:22 | -18.64761 | -45.44368 | 32154 ft | 475 kts | 328° |
| 2026-04-29 05:22 | -18.59085 | -45.47951 | 32153 ft | 476 kts | 328° |
| 2026-04-29 05:23 | -18.53435 | -45.51515 | 32157 ft | 476 kts | 328° |
| 2026-04-29 05:23 | -18.47738 | -45.55104 | 32156 ft | 476 kts | 328° |
| 2026-04-29 05:24 | -18.42049 | -45.58688 | 32156 ft | 476 kts | 328° |
| 2026-04-29 05:24 | -18.36521 | -45.62529 | 32146 ft | 475 kts | 323° |
| 2026-04-29 05:25 | -18.31266 | -45.66694 | 32146 ft | 476 kts | 321° |
| 2026-04-29 05:25 | -18.25987 | -45.70933 | 32148 ft | 477 kts | 322° |
| 2026-04-29 05:26 | -18.20688 | -45.75141 | 32146 ft | 477 kts | 322° |
| 2026-04-29 05:26 | -18.15377 | -45.79333 | 32144 ft | 477 kts | 322° |
| 2026-04-29 05:27 | -18.10061 | -45.83520 | 32145 ft | 477 kts | 322° |
| 2026-04-29 05:27 | -18.02116 | -45.89776 | 32144 ft | 477 kts | 322° |
| 2026-04-29 05:28 | -17.96787 | -45.93968 | 32268 ft | 477 kts | 322° |
| 2026-04-29 05:28 | -17.95030 | -45.95349 | 32415 ft | 475 kts | 322° |
| 2026-04-29 05:29 | -17.86431 | -46.01782 | 33101 ft | 476 kts | 331° |
| 2026-04-29 05:29 | -17.80340 | -46.04591 | 33146 ft | 479 kts | 338° |
| 2026-04-29 05:30 | -17.74127 | -46.07039 | 33146 ft | 479 kts | 338° |
| 2026-04-29 05:30 | -17.67899 | -46.09561 | 33147 ft | 479 kts | 337° |
| 2026-04-29 05:31 | -17.61704 | -46.12142 | 33145 ft | 478 kts | 337° |
| 2026-04-29 05:31 | -17.55525 | -46.14736 | 33146 ft | 478 kts | 337° |
| 2026-04-29 05:32 | -17.49383 | -46.17313 | 33146 ft | 478 kts | 337° |
| 2026-04-29 05:32 | -17.43201 | -46.19900 | 33147 ft | 478 kts | 337° |
| 2026-04-29 05:33 | -17.37002 | -46.22491 | 33146 ft | 478 kts | 337° |
| 2026-04-29 05:33 | -17.30843 | -46.25064 | 33147 ft | 478 kts | 337° |
| 2026-04-29 05:34 | -17.24664 | -46.27645 | 33146 ft | 478 kts | 337° |
| 2026-04-29 05:34 | -17.18492 | -46.30220 | 33145 ft | 478 kts | 337° |
| 2026-04-29 05:35 | -17.12309 | -46.32798 | 33147 ft | 477 kts | 337° |
| 2026-04-29 05:35 | -17.06137 | -46.35366 | 33147 ft | 478 kts | 337° |
| 2026-04-29 05:36 | -16.99955 | -46.37935 | 33148 ft | 478 kts | 337° |
| 2026-04-29 05:36 | -16.93773 | -46.40506 | 33146 ft | 477 kts | 337° |
| 2026-04-29 05:37 | -16.87628 | -46.43061 | 33147 ft | 477 kts | 337° |
| 2026-04-29 05:37 | -16.81454 | -46.45626 | 33146 ft | 477 kts | 337° |
| 2026-04-29 05:38 | -16.76312 | -46.47762 | 33146 ft | 478 kts | 338° |
| 2026-04-29 05:38 | -16.69621 | -46.50537 | 33147 ft | 478 kts | 338° |
| 2026-04-29 05:39 | -16.63445 | -46.53098 | 33147 ft | 478 kts | 338° |
| 2026-04-29 05:39 | -16.56774 | -46.55862 | 33138 ft | 478 kts | 338° |
| 2026-04-29 05:40 | -16.50593 | -46.58422 | 33137 ft | 477 kts | 338° |
| 2026-04-29 05:40 | -16.44410 | -46.60966 | 33138 ft | 478 kts | 338° |
| 2026-04-29 05:41 | -16.38205 | -46.63479 | 33138 ft | 478 kts | 338° |
| 2026-04-29 05:41 | -16.32002 | -46.65984 | 33137 ft | 478 kts | 338° |
| 2026-04-29 05:42 | -16.25839 | -46.68476 | 33137 ft | 478 kts | 338° |
| 2026-04-29 05:42 | -16.19632 | -46.70986 | 33145 ft | 478 kts | 338° |
| 2026-04-29 05:43 | -16.13429 | -46.73493 | 33150 ft | 478 kts | 338° |
| 2026-04-29 05:43 | -16.07217 | -46.76002 | 33160 ft | 478 kts | 338° |
| 2026-04-29 05:44 | -16.01012 | -46.78506 | 33150 ft | 478 kts | 338° |
| 2026-04-29 05:44 | -15.94839 | -46.80995 | 33151 ft | 479 kts | 338° |
| 2026-04-29 05:45 | -15.88622 | -46.83501 | 33152 ft | 479 kts | 338° |
| 2026-04-29 05:45 | -15.82395 | -46.86008 | 33148 ft | 479 kts | 338° |
| 2026-04-29 05:46 | -15.76162 | -46.88517 | 33148 ft | 480 kts | 338° |
| 2026-04-29 05:46 | -15.69971 | -46.91007 | 33146 ft | 480 kts | 338° |
| 2026-04-29 05:47 | -15.63729 | -46.93512 | 33146 ft | 480 kts | 338° |
| 2026-04-29 05:47 | -15.57484 | -46.96017 | 33146 ft | 480 kts | 338° |
| 2026-04-29 05:48 | -15.51251 | -46.98518 | 33146 ft | 480 kts | 338° |
| 2026-04-29 05:48 | -15.45048 | -47.01007 | 33146 ft | 481 kts | 339° |
| 2026-04-29 05:49 | -15.38799 | -47.03512 | 33148 ft | 481 kts | 339° |
| 2026-04-29 05:49 | -15.32553 | -47.06014 | 33147 ft | 481 kts | 339° |
| 2026-04-29 05:50 | -15.26307 | -47.08515 | 33147 ft | 481 kts | 339° |
| 2026-04-29 05:50 | -15.20057 | -47.11016 | 33147 ft | 481 kts | 339° |
| 2026-04-29 05:51 | -15.13814 | -47.13512 | 33147 ft | 481 kts | 339° |
| 2026-04-29 05:51 | -15.07562 | -47.16010 | 33147 ft | 481 kts | 339° |
| 2026-04-29 05:52 | -15.01346 | -47.18494 | 33148 ft | 482 kts | 339° |
| 2026-04-29 05:52 | -14.95093 | -47.20989 | 33146 ft | 481 kts | 339° |
| 2026-04-29 05:53 | -14.88836 | -47.23483 | 33148 ft | 482 kts | 339° |
| 2026-04-29 05:53 | -14.82581 | -47.25971 | 33142 ft | 482 kts | 339° |
| 2026-04-29 05:54 | -14.76326 | -47.28462 | 33137 ft | 482 kts | 339° |
| 2026-04-29 05:54 | -14.70063 | -47.30955 | 33137 ft | 482 kts | 339° |
| 2026-04-29 05:55 | -14.64866 | -47.33023 | 33137 ft | 482 kts | 339° |
| 2026-04-29 05:55 | -14.57585 | -47.35918 | 33137 ft | 482 kts | 339° |
| 2026-04-29 05:56 | -14.52376 | -47.37986 | 33138 ft | 482 kts | 339° |
| 2026-04-29 05:56 | -14.46111 | -47.40476 | 33137 ft | 482 kts | 339° |
| 2026-04-29 05:57 | -14.39840 | -47.42966 | 33130 ft | 482 kts | 339° |
| 2026-04-29 05:57 | -14.33602 | -47.45440 | 33128 ft | 482 kts | 339° |
| 2026-04-29 05:58 | -14.27337 | -47.47924 | 33128 ft | 482 kts | 339° |
| 2026-04-29 05:58 | -14.21074 | -47.50404 | 33128 ft | 482 kts | 339° |
| 2026-04-29 05:59 | -14.14787 | -47.52894 | 33127 ft | 483 kts | 339° |
| 2026-04-29 05:59 | -14.08520 | -47.55373 | 33119 ft | 483 kts | 339° |
| 2026-04-29 06:00 | -14.02276 | -47.57839 | 33119 ft | 483 kts | 339° |
| 2026-04-29 06:00 | -13.95996 | -47.60319 | 33119 ft | 483 kts | 339° |
| 2026-04-29 06:01 | -13.89719 | -47.62798 | 33111 ft | 483 kts | 339° |
| 2026-04-29 06:01 | -13.83432 | -47.65280 | 33110 ft | 483 kts | 339° |
| 2026-04-29 06:02 | -13.77153 | -47.67759 | 33098 ft | 483 kts | 339° |
| 2026-04-29 06:02 | -13.70900 | -47.70224 | 33103 ft | 483 kts | 339° |
| 2026-04-29 06:03 | -13.64616 | -47.72701 | 33097 ft | 483 kts | 339° |
| 2026-04-29 06:03 | -13.58334 | -47.75176 | 33093 ft | 483 kts | 339° |
| 2026-04-29 06:04 | -13.52049 | -47.77650 | 33091 ft | 483 kts | 339° |
| 2026-04-29 06:04 | -13.45769 | -47.80122 | 33089 ft | 484 kts | 339° |
| 2026-04-29 06:05 | -13.39514 | -47.82581 | 33082 ft | 484 kts | 339° |
| 2026-04-29 06:05 | -13.33227 | -47.85050 | 33083 ft | 484 kts | 339° |
| 2026-04-29 06:06 | -13.26938 | -47.87516 | 33074 ft | 484 kts | 339° |
| 2026-04-29 06:06 | -13.20645 | -47.89985 | 33073 ft | 484 kts | 339° |
| 2026-04-29 06:07 | -13.14350 | -47.92454 | 33070 ft | 484 kts | 339° |
| 2026-04-29 06:07 | -13.08061 | -47.94922 | 33085 ft | 484 kts | 339° |
| 2026-04-29 06:08 | -13.01795 | -47.97378 | 33079 ft | 485 kts | 339° |
| 2026-04-29 06:08 | -12.95456 | -47.99860 | 33073 ft | 487 kts | 339° |
| 2026-04-29 06:09 | -12.89118 | -48.02341 | 33067 ft | 487 kts | 339° |
| 2026-04-29 06:09 | -12.82780 | -48.04821 | 33064 ft | 487 kts | 339° |
| 2026-04-29 06:10 | -12.76472 | -48.07288 | 33063 ft | 487 kts | 339° |
| 2026-04-29 06:10 | -12.70131 | -48.09766 | 33054 ft | 487 kts | 339° |
| 2026-04-29 06:11 | -12.63787 | -48.12244 | 33054 ft | 487 kts | 339° |
| 2026-04-29 06:11 | -12.57439 | -48.14722 | 33046 ft | 488 kts | 339° |
| 2026-04-29 06:12 | -12.51085 | -48.17200 | 33047 ft | 488 kts | 339° |
| 2026-04-29 06:12 | -12.44778 | -48.19656 | 33034 ft | 488 kts | 339° |
| 2026-04-29 06:13 | -12.38424 | -48.22132 | 33034 ft | 488 kts | 339° |
| 2026-04-29 06:13 | -12.32071 | -48.24608 | 33033 ft | 488 kts | 339° |
| 2026-04-29 06:14 | -12.25712 | -48.27084 | 33026 ft | 489 kts | 339° |
| 2026-04-29 06:14 | -12.19355 | -48.29559 | 33025 ft | 488 kts | 339° |
| 2026-04-29 06:15 | -12.13004 | -48.32030 | 33022 ft | 489 kts | 339° |
| 2026-04-29 06:15 | -12.06645 | -48.34502 | 33018 ft | 489 kts | 339° |
| 2026-04-29 06:16 | -12.00281 | -48.36975 | 33014 ft | 489 kts | 339° |
| 2026-04-29 06:16 | -11.93960 | -48.39430 | 33010 ft | 489 kts | 340° |
| 2026-04-29 06:17 | -11.87587 | -48.41903 | 33008 ft | 489 kts | 340° |
| 2026-04-29 06:17 | -11.81220 | -48.44373 | 33002 ft | 489 kts | 340° |
| 2026-04-29 06:18 | -11.74894 | -48.46825 | 33001 ft | 488 kts | 340° |
| 2026-04-29 06:18 | -11.68522 | -48.49292 | 32996 ft | 488 kts | 340° |
| 2026-04-29 06:19 | -11.62164 | -48.51755 | 32992 ft | 488 kts | 340° |
| 2026-04-29 06:19 | -11.55841 | -48.54202 | 32995 ft | 488 kts | 340° |
| 2026-04-29 06:20 | -11.49485 | -48.56663 | 32980 ft | 488 kts | 340° |
| 2026-04-29 06:20 | -11.43140 | -48.59118 | 32990 ft | 488 kts | 340° |
| 2026-04-29 06:21 | -11.36790 | -48.61573 | 32978 ft | 488 kts | 340° |
| 2026-04-29 06:21 | -11.30482 | -48.64012 | 32978 ft | 488 kts | 340° |
| 2026-04-29 06:22 | -11.24139 | -48.66461 | 32974 ft | 487 kts | 340° |
| 2026-04-29 06:22 | -11.17786 | -48.68914 | 32985 ft | 487 kts | 340° |
| 2026-04-29 06:23 | -11.11451 | -48.71359 | 32984 ft | 487 kts | 340° |
| 2026-04-29 06:23 | -11.05110 | -48.73806 | 32974 ft | 487 kts | 340° |
| 2026-04-29 06:24 | -10.98768 | -48.76250 | 32976 ft | 487 kts | 340° |
| 2026-04-29 06:24 | -10.92425 | -48.78691 | 32971 ft | 487 kts | 340° |
| 2026-04-29 06:25 | -10.86132 | -48.81114 | 32966 ft | 486 kts | 340° |
| 2026-04-29 06:25 | -10.79800 | -48.83553 | 32970 ft | 486 kts | 340° |
| 2026-04-29 06:26 | -10.73473 | -48.85989 | 32974 ft | 486 kts | 340° |
| 2026-04-29 06:26 | -10.67148 | -48.88421 | 32970 ft | 486 kts | 340° |
| 2026-04-29 06:27 | -10.60818 | -48.90855 | 32973 ft | 486 kts | 340° |
| 2026-04-29 06:27 | -10.54494 | -48.93286 | 32973 ft | 486 kts | 340° |
| 2026-04-29 06:28 | -10.48160 | -48.95719 | 32971 ft | 486 kts | 340° |
| 2026-04-29 06:28 | -10.41839 | -48.98147 | 32975 ft | 486 kts | 340° |
| 2026-04-29 06:29 | -10.35513 | -49.00575 | 33184 ft | 485 kts | 340° |
| 2026-04-29 06:29 | -10.32397 | -49.01771 | 33424 ft | 484 kts | 340° |
| 2026-04-29 06:29 | -10.29246 | -49.02980 | 33669 ft | 483 kts | 340° |
| 2026-04-29 06:30 | -10.26101 | -49.04186 | 33896 ft | 483 kts | 340° |
| 2026-04-29 06:30 | -10.19818 | -49.06593 | 33962 ft | 482 kts | 340° |
| 2026-04-29 06:31 | -10.13588 | -49.09079 | 33962 ft | 481 kts | 335° |
| 2026-04-29 06:31 | -10.07869 | -49.12630 | 33958 ft | 483 kts | 326° |
| 2026-04-29 06:32 | -10.02447 | -49.16601 | 33966 ft | 483 kts | 325° |
| 2026-04-29 06:32 | -9.96977 | -49.20568 | 33961 ft | 483 kts | 326° |
| 2026-04-29 06:33 | -9.91463 | -49.24476 | 33968 ft | 483 kts | 327° |
| 2026-04-29 06:33 | -9.85934 | -49.28362 | 33957 ft | 483 kts | 327° |
| 2026-04-29 06:34 | -9.80407 | -49.32243 | 33957 ft | 483 kts | 327° |
| 2026-04-29 06:34 | -9.74884 | -49.36127 | 33963 ft | 483 kts | 327° |
| 2026-04-29 06:35 | -9.69394 | -49.39985 | 33959 ft | 483 kts | 327° |
| 2026-04-29 06:35 | -9.63858 | -49.43875 | 33963 ft | 483 kts | 327° |
| 2026-04-29 06:36 | -9.58338 | -49.47749 | 33962 ft | 483 kts | 327° |
| 2026-04-29 06:36 | -9.52813 | -49.51627 | 33963 ft | 483 kts | 327° |
| 2026-04-29 06:37 | -9.47286 | -49.55505 | 33963 ft | 483 kts | 327° |
| 2026-04-29 06:37 | -9.41791 | -49.59355 | 33962 ft | 483 kts | 327° |
| 2026-04-29 06:38 | -9.36267 | -49.63223 | 33966 ft | 483 kts | 327° |
| 2026-04-29 06:38 | -9.30742 | -49.67093 | 33966 ft | 483 kts | 327° |
| 2026-04-29 06:39 | -9.25208 | -49.70968 | 33957 ft | 483 kts | 327° |
| 2026-04-29 06:39 | -9.19686 | -49.74837 | 33948 ft | 482 kts | 327° |
| 2026-04-29 06:40 | -9.14167 | -49.78699 | 33952 ft | 482 kts | 327° |
| 2026-04-29 06:40 | -9.08639 | -49.82566 | 33950 ft | 482 kts | 327° |
| 2026-04-29 06:41 | -9.03154 | -49.86402 | 33957 ft | 482 kts | 327° |
| 2026-04-29 06:41 | -8.97633 | -49.90262 | 33955 ft | 482 kts | 327° |
| 2026-04-29 06:42 | -8.92112 | -49.94120 | 33950 ft | 482 kts | 327° |
| 2026-04-29 06:42 | -8.86593 | -49.97976 | 33947 ft | 482 kts | 327° |
| 2026-04-29 06:43 | -8.81074 | -50.01830 | 33958 ft | 482 kts | 327° |
| 2026-04-29 06:43 | -8.75549 | -50.05684 | 33947 ft | 482 kts | 327° |
| 2026-04-29 06:44 | -8.70021 | -50.09539 | 33947 ft | 482 kts | 327° |
| 2026-04-29 06:44 | -8.64503 | -50.13385 | 33953 ft | 482 kts | 327° |
| 2026-04-29 06:45 | -8.58986 | -50.17232 | 33947 ft | 482 kts | 327° |
| 2026-04-29 06:45 | -8.53470 | -50.21076 | 33939 ft | 481 kts | 327° |
| 2026-04-29 06:46 | -8.47981 | -50.24901 | 33942 ft | 481 kts | 327° |
| 2026-04-29 06:46 | -8.43399 | -50.28092 | 33946 ft | 481 kts | 327° |
| 2026-04-29 06:47 | -8.37874 | -50.31939 | 33936 ft | 482 kts | 327° |
| 2026-04-29 06:47 | -8.32354 | -50.35782 | 33954 ft | 482 kts | 327° |
| 2026-04-29 06:48 | -8.26834 | -50.39623 | 33937 ft | 482 kts | 327° |
| 2026-04-29 06:48 | -8.21313 | -50.43463 | 33947 ft | 482 kts | 327° |
| 2026-04-29 06:49 | -8.15828 | -50.47276 | 33937 ft | 482 kts | 327° |
| 2026-04-29 06:49 | -8.10303 | -50.51117 | 33934 ft | 481 kts | 327° |
| 2026-04-29 06:50 | -8.04783 | -50.54951 | 33934 ft | 481 kts | 327° |
| 2026-04-29 06:50 | -7.99257 | -50.58785 | 33935 ft | 482 kts | 327° |
| 2026-04-29 06:51 | -7.93732 | -50.62620 | 33934 ft | 482 kts | 327° |
| 2026-04-29 06:51 | -7.88199 | -50.66461 | 33934 ft | 483 kts | 327° |
| 2026-04-29 06:52 | -7.82697 | -50.70278 | 33933 ft | 483 kts | 327° |
| 2026-04-29 06:52 | -7.77150 | -50.74127 | 33934 ft | 483 kts | 327° |
| 2026-04-29 06:53 | -7.71612 | -50.77968 | 33933 ft | 483 kts | 327° |
| 2026-04-29 06:53 | -7.66072 | -50.81808 | 33932 ft | 483 kts | 327° |
| 2026-04-29 06:54 | -7.60428 | -50.85489 | 33934 ft | 483 kts | 331° |
| 2026-04-29 06:54 | -7.54661 | -50.88881 | 33935 ft | 483 kts | 332° |
| 2026-04-29 06:55 | -7.48839 | -50.92258 | 33936 ft | 483 kts | 332° |
| 2026-04-29 06:55 | -7.43022 | -50.95661 | 33926 ft | 483 kts | 331° |
| 2026-04-29 06:56 | -7.37207 | -50.99078 | 33925 ft | 484 kts | 331° |
| 2026-04-29 06:56 | -7.31387 | -51.02499 | 33926 ft | 484 kts | 331° |
| 2026-04-29 06:57 | -7.25570 | -51.05917 | 33925 ft | 484 kts | 331° |
| 2026-04-29 06:57 | -7.19749 | -51.09336 | 33925 ft | 484 kts | 331° |
| 2026-04-29 06:58 | -7.13964 | -51.12732 | 33925 ft | 485 kts | 331° |
| 2026-04-29 06:58 | -7.08137 | -51.16152 | 33925 ft | 485 kts | 331° |
| 2026-04-29 06:59 | -7.02308 | -51.19573 | 33926 ft | 485 kts | 331° |
| 2026-04-29 06:59 | -6.96475 | -51.22993 | 33925 ft | 485 kts | 331° |
| 2026-04-29 07:00 | -6.90640 | -51.26415 | 33925 ft | 485 kts | 331° |
| 2026-04-29 07:00 | -6.84799 | -51.29837 | 33925 ft | 486 kts | 331° |
| 2026-04-29 07:01 | -6.78955 | -51.33260 | 33925 ft | 486 kts | 331° |
| 2026-04-29 07:01 | -6.73110 | -51.36684 | 33924 ft | 486 kts | 331° |
| 2026-04-29 07:02 | -6.67259 | -51.40110 | 33924 ft | 487 kts | 331° |
| 2026-04-29 07:02 | -6.61404 | -51.43539 | 33925 ft | 487 kts | 331° |
| 2026-04-29 07:03 | -6.55545 | -51.46969 | 33925 ft | 487 kts | 331° |
| 2026-04-29 07:03 | -6.49681 | -51.50401 | 33926 ft | 488 kts | 331° |
| 2026-04-29 07:04 | -6.43844 | -51.53816 | 33926 ft | 488 kts | 331° |
| 2026-04-29 07:04 | -6.37962 | -51.57256 | 33916 ft | 489 kts | 331° |
| 2026-04-29 07:05 | -6.32076 | -51.60697 | 33915 ft | 489 kts | 331° |
| 2026-04-29 07:05 | -6.26189 | -51.64139 | 33915 ft | 489 kts | 331° |
| 2026-04-29 07:06 | -6.20294 | -51.67585 | 33915 ft | 490 kts | 331° |
| 2026-04-29 07:06 | -6.14438 | -51.71003 | 33917 ft | 490 kts | 331° |
| 2026-04-29 07:07 | -6.08541 | -51.74446 | 33915 ft | 490 kts | 331° |
| 2026-04-29 07:07 | -6.02636 | -51.77894 | 33915 ft | 490 kts | 331° |
| 2026-04-29 07:08 | -5.96724 | -51.81345 | 33915 ft | 491 kts | 331° |
| 2026-04-29 07:08 | -5.90854 | -51.84772 | 33915 ft | 491 kts | 331° |
| 2026-04-29 07:09 | -5.84949 | -51.88218 | 33916 ft | 491 kts | 331° |
| 2026-04-29 07:09 | -5.79041 | -51.91665 | 33915 ft | 491 kts | 331° |
| 2026-04-29 07:10 | -5.73133 | -51.95112 | 33915 ft | 491 kts | 331° |
| 2026-04-29 07:10 | -5.67259 | -51.98536 | 33915 ft | 490 kts | 331° |
| 2026-04-29 07:11 | -5.61354 | -52.01978 | 33914 ft | 490 kts | 331° |
| 2026-04-29 07:11 | -5.55452 | -52.05417 | 33915 ft | 491 kts | 331° |
| 2026-04-29 07:12 | -5.49542 | -52.08860 | 33910 ft | 491 kts | 331° |
| 2026-04-29 07:12 | -5.43641 | -52.12297 | 33900 ft | 491 kts | 331° |
| 2026-04-29 07:13 | -5.37731 | -52.15738 | 33894 ft | 490 kts | 331° |
| 2026-04-29 07:13 | -5.31833 | -52.19171 | 33897 ft | 490 kts | 331° |
| 2026-04-29 07:14 | -5.25937 | -52.22605 | 33906 ft | 490 kts | 331° |
| 2026-04-29 07:14 | -5.20074 | -52.26016 | 33903 ft | 490 kts | 331° |
| 2026-04-29 07:15 | -5.14171 | -52.29451 | 33905 ft | 489 kts | 331° |
| 2026-04-29 07:15 | -5.08315 | -52.32858 | 33905 ft | 489 kts | 331° |
| 2026-04-29 07:16 | -5.02420 | -52.36287 | 33910 ft | 489 kts | 331° |
| 2026-04-29 07:16 | -4.96525 | -52.39715 | 33907 ft | 489 kts | 331° |
| 2026-04-29 07:17 | -4.90674 | -52.43116 | 33901 ft | 488 kts | 331° |
| 2026-04-29 07:17 | -4.84788 | -52.46537 | 33895 ft | 488 kts | 331° |
| 2026-04-29 07:18 | -4.78900 | -52.49958 | 33897 ft | 488 kts | 331° |
| 2026-04-29 07:18 | -4.73027 | -52.53371 | 33901 ft | 488 kts | 331° |
| 2026-04-29 07:19 | -4.67148 | -52.56786 | 33899 ft | 488 kts | 331° |
| 2026-04-29 07:19 | -4.61276 | -52.60194 | 33898 ft | 488 kts | 331° |
| 2026-04-29 07:20 | -4.55435 | -52.63586 | 33895 ft | 487 kts | 331° |
| 2026-04-29 07:20 | -4.49559 | -52.66997 | 33899 ft | 487 kts | 331° |
| 2026-04-29 07:21 | -4.43693 | -52.70402 | 33895 ft | 487 kts | 331° |
| 2026-04-29 07:21 | -4.37822 | -52.73809 | 33901 ft | 487 kts | 331° |
| 2026-04-29 07:22 | -4.31989 | -52.77193 | 33898 ft | 487 kts | 331° |
| 2026-04-29 07:22 | -4.26114 | -52.80601 | 33895 ft | 487 kts | 331° |
| 2026-04-29 07:23 | -4.20245 | -52.84007 | 33900 ft | 487 kts | 331° |
| 2026-04-29 07:23 | -4.14379 | -52.87408 | 33900 ft | 487 kts | 331° |
| 2026-04-29 07:24 | -4.08512 | -52.90809 | 33898 ft | 487 kts | 331° |
| 2026-04-29 07:24 | -4.02648 | -52.94209 | 33898 ft | 487 kts | 331° |
| 2026-04-29 07:25 | -3.96780 | -52.97611 | 33898 ft | 487 kts | 331° |
| 2026-04-29 07:25 | -3.90909 | -53.01011 | 33898 ft | 487 kts | 331° |
| 2026-04-29 07:26 | -3.85078 | -53.04389 | 33896 ft | 487 kts | 331° |
| 2026-04-29 07:26 | -3.79208 | -53.07790 | 33894 ft | 487 kts | 331° |
| 2026-04-29 07:27 | -3.73335 | -53.11192 | 33894 ft | 487 kts | 331° |
| 2026-04-29 07:27 | -3.67459 | -53.14595 | 33900 ft | 487 kts | 331° |
| 2026-04-29 07:28 | -3.61583 | -53.17998 | 33896 ft | 488 kts | 331° |
| 2026-04-29 07:28 | -3.55697 | -53.21406 | 33898 ft | 488 kts | 331° |
| 2026-04-29 07:29 | -3.49834 | -53.24739 | 33893 ft | 487 kts | 333° |
| 2026-04-29 07:29 | -3.43750 | -53.27737 | 33885 ft | 487 kts | 336° |
| 2026-04-29 07:30 | -3.37607 | -53.30606 | 33889 ft | 487 kts | 336° |
| 2026-04-29 07:30 | -3.31467 | -53.33492 | 33888 ft | 487 kts | 336° |
| 2026-04-29 07:31 | -3.22270 | -53.37855 | 33886 ft | 488 kts | 336° |
| 2026-04-29 07:31 | -3.16171 | -53.40754 | 33886 ft | 488 kts | 336° |
| 2026-04-29 07:32 | -3.10034 | -53.43670 | 33885 ft | 488 kts | 336° |
| 2026-04-29 07:32 | -3.03895 | -53.46586 | 33885 ft | 488 kts | 336° |
| 2026-04-29 07:33 | -2.97792 | -53.49484 | 33886 ft | 488 kts | 336° |
| 2026-04-29 07:33 | -2.91643 | -53.52403 | 33887 ft | 488 kts | 336° |
| 2026-04-29 07:34 | -2.85499 | -53.55321 | 33888 ft | 488 kts | 336° |
| 2026-04-29 07:34 | -2.79360 | -53.58235 | 33885 ft | 489 kts | 336° |
| 2026-04-29 07:35 | -2.73210 | -53.61152 | 33885 ft | 489 kts | 336° |
| 2026-04-29 07:35 | -2.67057 | -53.64071 | 33891 ft | 489 kts | 336° |
| 2026-04-29 07:36 | -2.60946 | -53.66972 | 33893 ft | 490 kts | 336° |
| 2026-04-29 07:36 | -2.54785 | -53.69895 | 33886 ft | 490 kts | 336° |
| 2026-04-29 07:37 | -2.48619 | -53.72821 | 33886 ft | 490 kts | 336° |
| 2026-04-29 07:37 | -2.42443 | -53.75750 | 33886 ft | 490 kts | 336° |
| 2026-04-29 07:38 | -2.36312 | -53.78655 | 33894 ft | 491 kts | 336° |
| 2026-04-29 07:38 | -2.30143 | -53.81582 | 33890 ft | 491 kts | 336° |
| 2026-04-29 07:39 | -2.23965 | -53.84506 | 33885 ft | 491 kts | 336° |
| 2026-04-29 07:39 | -2.18824 | -53.86927 | 33885 ft | 491 kts | 336° |
| 2026-04-29 07:40 | -2.12633 | -53.89840 | 33885 ft | 492 kts | 336° |
| 2026-04-29 07:40 | -2.06434 | -53.92758 | 33888 ft | 492 kts | 336° |
| 2026-04-29 07:41 | -2.00239 | -53.95675 | 33885 ft | 492 kts | 336° |
| 2026-04-29 07:41 | -1.94033 | -53.98596 | 33888 ft | 492 kts | 336° |
| 2026-04-29 07:42 | -1.87836 | -54.01514 | 33893 ft | 492 kts | 336° |
| 2026-04-29 07:42 | -1.81633 | -54.04433 | 33895 ft | 492 kts | 336° |
| 2026-04-29 07:43 | -1.75479 | -54.07329 | 33888 ft | 492 kts | 336° |
| 2026-04-29 07:43 | -1.69278 | -54.10247 | 33886 ft | 492 kts | 336° |
| 2026-04-29 07:44 | -1.63091 | -54.13160 | 33885 ft | 492 kts | 336° |
| 2026-04-29 07:44 | -1.56895 | -54.16075 | 33887 ft | 492 kts | 336° |
| 2026-04-29 07:45 | -1.50706 | -54.18987 | 33885 ft | 491 kts | 336° |
| 2026-04-29 07:45 | -1.44558 | -54.21879 | 33887 ft | 491 kts | 336° |
| 2026-04-29 07:46 | -1.38378 | -54.24786 | 33887 ft | 491 kts | 336° |
| 2026-04-29 07:46 | -1.32205 | -54.27690 | 33885 ft | 490 kts | 336° |
| 2026-04-29 07:47 | -1.26025 | -54.30597 | 33885 ft | 490 kts | 336° |
| 2026-04-29 07:47 | -1.19849 | -54.33503 | 33885 ft | 490 kts | 336° |
| 2026-04-29 07:48 | -1.13678 | -54.36405 | 33889 ft | 489 kts | 336° |
| 2026-04-29 07:48 | -1.07518 | -54.39303 | 33886 ft | 489 kts | 336° |
| 2026-04-29 07:49 | -1.01393 | -54.42184 | 33886 ft | 489 kts | 336° |
| 2026-04-29 07:49 | -0.95238 | -54.45079 | 33886 ft | 489 kts | 336° |
| 2026-04-29 07:50 | -0.89084 | -54.47973 | 33886 ft | 488 kts | 335° |
| 2026-04-29 07:50 | -0.82932 | -54.50867 | 33886 ft | 488 kts | 335° |
| 2026-04-29 07:51 | -0.76785 | -54.53757 | 33886 ft | 488 kts | 335° |
| 2026-04-29 07:51 | -0.70636 | -54.56648 | 33891 ft | 488 kts | 335° |
| 2026-04-29 07:52 | -0.64491 | -54.59537 | 33888 ft | 488 kts | 335° |
| 2026-04-29 07:52 | -0.58349 | -54.62425 | 33889 ft | 487 kts | 335° |
| 2026-04-29 07:53 | -0.52212 | -54.65311 | 33886 ft | 487 kts | 335° |
| 2026-04-29 07:53 | -0.46077 | -54.68195 | 33886 ft | 487 kts | 335° |
| 2026-04-29 07:54 | -0.39983 | -54.71060 | 33890 ft | 487 kts | 335° |
| 2026-04-29 07:54 | -0.33852 | -54.73943 | 33886 ft | 487 kts | 335° |
| 2026-04-29 07:55 | -0.27709 | -54.76832 | 33886 ft | 487 kts | 335° |
| 2026-04-29 07:55 | -0.21575 | -54.79715 | 33887 ft | 487 kts | 335° |
| 2026-04-29 07:56 | -0.15441 | -54.82600 | 33893 ft | 487 kts | 335° |
| 2026-04-29 07:56 | -0.09298 | -54.85488 | 33891 ft | 487 kts | 335° |
| 2026-04-29 07:57 | -0.03206 | -54.88352 | 33900 ft | 487 kts | 335° |
| 2026-04-29 07:57 | 0.02926 | -54.91232 | 33902 ft | 487 kts | 335° |
| 2026-04-29 07:58 | 0.09049 | -54.94112 | 33894 ft | 486 kts | 335° |
| 2026-04-29 07:58 | 0.15174 | -54.96992 | 33894 ft | 486 kts | 335° |
| 2026-04-29 07:59 | 0.21294 | -54.99870 | 33894 ft | 486 kts | 335° |
| 2026-04-29 07:59 | 0.27418 | -55.02749 | 33899 ft | 486 kts | 335° |
| 2026-04-29 08:00 | 0.33511 | -55.05612 | 33898 ft | 486 kts | 335° |
| 2026-04-29 08:00 | 0.39634 | -55.08492 | 33897 ft | 486 kts | 335° |
| 2026-04-29 08:01 | 0.45752 | -55.11369 | 33894 ft | 486 kts | 335° |
| 2026-04-29 08:01 | 0.51871 | -55.14247 | 33896 ft | 486 kts | 335° |
| 2026-04-29 08:02 | 0.57987 | -55.17122 | 33894 ft | 486 kts | 335° |
| 2026-04-29 08:02 | 0.64108 | -55.19999 | 33896 ft | 486 kts | 335° |
| 2026-04-29 08:03 | 0.70192 | -55.22860 | 33900 ft | 486 kts | 335° |
| 2026-04-29 08:03 | 0.76314 | -55.25739 | 33896 ft | 486 kts | 335° |
| 2026-04-29 08:04 | 0.82429 | -55.28615 | 33898 ft | 486 kts | 335° |
| 2026-04-29 08:04 | 0.88559 | -55.31497 | 33896 ft | 485 kts | 334° |
| 2026-04-29 08:05 | 0.94673 | -55.34373 | 33898 ft | 486 kts | 334° |
| 2026-04-29 08:05 | 1.00787 | -55.37249 | 33898 ft | 485 kts | 334° |
| 2026-04-29 08:06 | 1.06898 | -55.40124 | 33901 ft | 486 kts | 334° |
| 2026-04-29 08:06 | 1.12980 | -55.42983 | 33900 ft | 486 kts | 334° |
| 2026-04-29 08:07 | 1.19102 | -55.45863 | 33894 ft | 486 kts | 334° |
| 2026-04-29 08:07 | 1.25222 | -55.48741 | 33899 ft | 486 kts | 334° |
| 2026-04-29 08:08 | 1.31339 | -55.51618 | 33894 ft | 485 kts | 334° |
| 2026-04-29 08:08 | 1.37420 | -55.54479 | 33900 ft | 485 kts | 334° |
| 2026-04-29 08:09 | 1.43535 | -55.57356 | 33899 ft | 485 kts | 334° |
| 2026-04-29 08:09 | 1.49652 | -55.60233 | 33908 ft | 485 kts | 334° |
| 2026-04-29 08:10 | 1.55771 | -55.63114 | 33906 ft | 486 kts | 334° |
| 2026-04-29 08:10 | 1.61853 | -55.65979 | 33908 ft | 486 kts | 334° |
| 2026-04-29 08:11 | 1.67970 | -55.68860 | 33908 ft | 485 kts | 334° |
| 2026-04-29 08:11 | 1.74085 | -55.71741 | 33905 ft | 485 kts | 334° |
| 2026-04-29 08:12 | 1.80156 | -55.74601 | 33908 ft | 485 kts | 334° |
| 2026-04-29 08:12 | 1.86272 | -55.77478 | 33905 ft | 485 kts | 334° |
| 2026-04-29 08:13 | 1.92391 | -55.80359 | 33905 ft | 485 kts | 334° |
| 2026-04-29 08:13 | 1.98466 | -55.83216 | 33909 ft | 485 kts | 334° |
| 2026-04-29 08:14 | 2.04582 | -55.86095 | 33904 ft | 485 kts | 334° |
| 2026-04-29 08:14 | 2.10698 | -55.88973 | 33907 ft | 485 kts | 334° |
| 2026-04-29 08:15 | 2.16769 | -55.91830 | 33907 ft | 485 kts | 334° |
| 2026-04-29 08:15 | 2.22866 | -55.94743 | 33905 ft | 485 kts | 333° |
| 2026-04-29 08:16 | 2.28871 | -55.97823 | 33908 ft | 485 kts | 332° |
| 2026-04-29 08:16 | 2.34850 | -56.00948 | 33907 ft | 485 kts | 332° |
| 2026-04-29 08:17 | 2.40789 | -56.04041 | 33905 ft | 484 kts | 332° |
| 2026-04-29 08:17 | 2.46773 | -56.07148 | 33907 ft | 483 kts | 332° |
| 2026-04-29 08:18 | 2.52752 | -56.10249 | 33905 ft | 483 kts | 332° |
| 2026-04-29 08:18 | 2.58688 | -56.13328 | 33906 ft | 483 kts | 332° |
| 2026-04-29 08:19 | 2.64660 | -56.16426 | 33905 ft | 482 kts | 332° |
| 2026-04-29 08:19 | 2.70617 | -56.19516 | 33905 ft | 482 kts | 332° |
| 2026-04-29 08:20 | 2.76569 | -56.22606 | 33908 ft | 481 kts | 332° |
| 2026-04-29 08:20 | 2.82481 | -56.25674 | 33906 ft | 481 kts | 332° |
| 2026-04-29 08:21 | 2.88421 | -56.28758 | 33906 ft | 481 kts | 332° |
| 2026-04-29 08:21 | 2.94366 | -56.31845 | 33909 ft | 480 kts | 332° |
| 2026-04-29 08:22 | 3.00257 | -56.34904 | 33907 ft | 479 kts | 332° |
| 2026-04-29 08:22 | 3.06183 | -56.37982 | 33910 ft | 479 kts | 332° |
| 2026-04-29 08:23 | 3.12110 | -56.41060 | 33905 ft | 479 kts | 332° |
| 2026-04-29 08:23 | 3.18003 | -56.44121 | 33905 ft | 478 kts | 332° |
| 2026-04-29 08:24 | 3.23918 | -56.47193 | 33904 ft | 478 kts | 332° |
| 2026-04-29 08:24 | 3.29805 | -56.50252 | 33908 ft | 478 kts | 332° |
| 2026-04-29 08:25 | 3.35728 | -56.53330 | 33910 ft | 478 kts | 332° |
| 2026-04-29 08:25 | 3.41643 | -56.56405 | 33905 ft | 478 kts | 332° |
| 2026-04-29 08:26 | 3.47517 | -56.59458 | 33905 ft | 478 kts | 332° |
| 2026-04-29 08:26 | 3.53421 | -56.62526 | 33905 ft | 477 kts | 332° |
| 2026-04-29 08:27 | 3.59319 | -56.65592 | 33905 ft | 477 kts | 332° |
| 2026-04-29 08:27 | 3.65218 | -56.68660 | 33906 ft | 477 kts | 332° |
| 2026-04-29 08:28 | 3.71089 | -56.71714 | 33905 ft | 477 kts | 332° |
| 2026-04-29 08:28 | 3.76986 | -56.74782 | 33904 ft | 477 kts | 332° |
| 2026-04-29 08:29 | 3.82892 | -56.77854 | 33906 ft | 477 kts | 332° |
| 2026-04-29 08:29 | 3.88790 | -56.80923 | 33913 ft | 477 kts | 332° |
| 2026-04-29 08:30 | 3.97585 | -56.85500 | 33915 ft | 476 kts | 332° |
| 2026-04-29 08:31 | 4.03458 | -56.88557 | 33914 ft | 475 kts | 332° |
| 2026-04-29 08:31 | 4.08329 | -56.91093 | 33916 ft | 474 kts | 332° |
| 2026-04-29 08:32 | 4.14196 | -56.94149 | 33918 ft | 474 kts | 332° |
| 2026-04-29 08:32 | 4.20019 | -56.97181 | 33915 ft | 474 kts | 332° |
| 2026-04-29 08:33 | 4.25875 | -57.00231 | 33915 ft | 473 kts | 332° |
| 2026-04-29 08:33 | 4.31689 | -57.03259 | 33919 ft | 473 kts | 332° |
| 2026-04-29 08:34 | 4.37533 | -57.06304 | 33915 ft | 473 kts | 332° |
| 2026-04-29 08:34 | 4.43372 | -57.09346 | 33915 ft | 473 kts | 332° |
| 2026-04-29 08:35 | 4.49210 | -57.12390 | 33917 ft | 472 kts | 332° |
| 2026-04-29 08:35 | 4.55003 | -57.15411 | 33915 ft | 472 kts | 332° |
| 2026-04-29 08:36 | 4.60829 | -57.18449 | 33917 ft | 472 kts | 332° |
| 2026-04-29 08:36 | 4.66665 | -57.21492 | 33916 ft | 472 kts | 332° |
| 2026-04-29 08:37 | 4.72468 | -57.24519 | 33915 ft | 472 kts | 332° |
| 2026-04-29 08:37 | 4.78317 | -57.27571 | 33915 ft | 472 kts | 332° |
| 2026-04-29 08:38 | 4.84107 | -57.30592 | 33918 ft | 472 kts | 332° |
| 2026-04-29 08:38 | 4.89931 | -57.33632 | 33915 ft | 471 kts | 332° |
| 2026-04-29 08:39 | 4.95742 | -57.36665 | 33918 ft | 471 kts | 332° |
| 2026-04-29 08:39 | 5.01563 | -57.39704 | 33917 ft | 471 kts | 332° |
| 2026-04-29 08:40 | 5.07377 | -57.42750 | 33917 ft | 471 kts | 332° |
| 2026-04-29 08:40 | 5.13153 | -57.45781 | 33918 ft | 471 kts | 332° |
| 2026-04-29 08:41 | 5.18979 | -57.48838 | 33915 ft | 471 kts | 332° |
| 2026-04-29 08:41 | 5.24763 | -57.51872 | 33915 ft | 471 kts | 332° |
| 2026-04-29 08:42 | 5.30571 | -57.54919 | 33918 ft | 471 kts | 332° |
| 2026-04-29 08:42 | 5.36382 | -57.57969 | 33915 ft | 471 kts | 332° |
| 2026-04-29 08:43 | 5.42197 | -57.61023 | 33916 ft | 471 kts | 332° |
| 2026-04-29 08:43 | 5.48004 | -57.64071 | 33915 ft | 471 kts | 332° |
| 2026-04-29 08:44 | 5.53778 | -57.67102 | 33915 ft | 471 kts | 332° |
| 2026-04-29 08:44 | 5.59586 | -57.70154 | 33917 ft | 471 kts | 332° |
| 2026-04-29 08:45 | 5.65407 | -57.73212 | 33915 ft | 471 kts | 332° |
| 2026-04-29 08:45 | 5.71179 | -57.76245 | 33917 ft | 471 kts | 332° |
| 2026-04-29 08:46 | 5.76989 | -57.79300 | 33917 ft | 471 kts | 332° |
| 2026-04-29 08:46 | 5.82797 | -57.82355 | 33916 ft | 471 kts | 332° |
| 2026-04-29 08:47 | 5.88614 | -57.85416 | 33915 ft | 471 kts | 332° |
| 2026-04-29 08:47 | 5.94420 | -57.88470 | 33915 ft | 471 kts | 332° |
| 2026-04-29 08:48 | 6.00192 | -57.91506 | 33915 ft | 471 kts | 332° |
| 2026-04-29 08:48 | 6.06007 | -57.94567 | 33915 ft | 471 kts | 332° |
| 2026-04-29 08:49 | 6.11816 | -57.97625 | 33915 ft | 471 kts | 332° |
| 2026-04-29 08:49 | 6.17592 | -58.00666 | 33915 ft | 471 kts | 332° |
| 2026-04-29 08:50 | 6.23411 | -58.03730 | 33915 ft | 471 kts | 332° |
| 2026-04-29 08:50 | 6.29189 | -58.06773 | 33915 ft | 471 kts | 332° |
| 2026-04-29 08:51 | 6.35003 | -58.09836 | 33915 ft | 471 kts | 332° |
| 2026-04-29 08:51 | 6.40811 | -58.12898 | 33917 ft | 471 kts | 332° |
| 2026-04-29 08:52 | 6.46619 | -58.15960 | 33915 ft | 471 kts | 332° |
| 2026-04-29 08:52 | 6.52398 | -58.19008 | 33915 ft | 471 kts | 332° |
| 2026-04-29 08:53 | 6.58206 | -58.22074 | 33915 ft | 471 kts | 332° |
| 2026-04-29 08:53 | 6.63980 | -58.25121 | 33915 ft | 471 kts | 332° |
| 2026-04-29 08:54 | 6.69785 | -58.28185 | 33915 ft | 471 kts | 332° |
| 2026-04-29 08:54 | 6.75589 | -58.31248 | 33915 ft | 471 kts | 332° |
| 2026-04-29 08:55 | 6.81401 | -58.34318 | 33915 ft | 471 kts | 332° |
| 2026-04-29 08:55 | 6.87171 | -58.37365 | 33915 ft | 471 kts | 332° |
| 2026-04-29 08:56 | 6.92975 | -58.40433 | 33915 ft | 471 kts | 332° |
| 2026-04-29 08:56 | 6.98787 | -58.43504 | 33915 ft | 471 kts | 332° |
| 2026-04-29 08:57 | 7.04564 | -58.46557 | 33915 ft | 471 kts | 332° |
| 2026-04-29 08:57 | 7.10381 | -58.49633 | 33915 ft | 471 kts | 331° |
| 2026-04-29 08:58 | 7.16183 | -58.52704 | 33917 ft | 471 kts | 332° |
| 2026-04-29 08:58 | 7.21970 | -58.55764 | 33918 ft | 472 kts | 332° |
| 2026-04-29 08:59 | 7.27796 | -58.58849 | 33915 ft | 472 kts | 332° |
| 2026-04-29 08:59 | 7.33575 | -58.61909 | 33915 ft | 472 kts | 331° |
| 2026-04-29 09:00 | 7.39399 | -58.64994 | 33915 ft | 472 kts | 332° |
| 2026-04-29 09:00 | 7.45214 | -58.68076 | 33915 ft | 472 kts | 331° |
| 2026-04-29 09:01 | 7.50997 | -58.71139 | 33915 ft | 472 kts | 332° |
| 2026-04-29 09:01 | 7.56818 | -58.74224 | 33915 ft | 472 kts | 332° |
| 2026-04-29 09:02 | 7.62636 | -58.77307 | 33916 ft | 472 kts | 332° |
| 2026-04-29 09:02 | 7.68449 | -58.80391 | 33915 ft | 472 kts | 331° |
| 2026-04-29 09:03 | 7.74230 | -58.83460 | 33915 ft | 472 kts | 331° |
| 2026-04-29 09:03 | 7.80050 | -58.86548 | 33915 ft | 472 kts | 331° |
| 2026-04-29 09:04 | 7.85870 | -58.89636 | 33916 ft | 472 kts | 331° |
| 2026-04-29 09:04 | 7.91666 | -58.92714 | 33917 ft | 472 kts | 331° |
| 2026-04-29 09:05 | 7.97490 | -58.95808 | 33915 ft | 473 kts | 331° |
| 2026-04-29 09:05 | 8.03313 | -58.98905 | 33915 ft | 472 kts | 331° |
| 2026-04-29 09:06 | 8.09105 | -59.01985 | 33917 ft | 472 kts | 331° |
| 2026-04-29 09:06 | 8.14920 | -59.05078 | 33915 ft | 472 kts | 331° |
| 2026-04-29 09:07 | 8.20694 | -59.08149 | 33914 ft | 472 kts | 331° |
| 2026-04-29 09:07 | 8.26510 | -59.11245 | 33915 ft | 472 kts | 331° |
| 2026-04-29 09:08 | 8.32333 | -59.14343 | 33915 ft | 471 kts | 331° |
| 2026-04-29 09:08 | 8.38098 | -59.17412 | 33915 ft | 469 kts | 332° |
| 2026-04-29 09:09 | 8.43876 | -59.20489 | 33915 ft | 468 kts | 331° |
| 2026-04-29 09:09 | 8.49639 | -59.23559 | 33917 ft | 468 kts | 332° |
| 2026-04-29 09:10 | 8.55397 | -59.26629 | 33924 ft | 467 kts | 331° |
| 2026-04-29 09:10 | 8.61124 | -59.29681 | 33925 ft | 467 kts | 331° |
| 2026-04-29 09:11 | 8.66883 | -59.32753 | 33924 ft | 467 kts | 331° |
| 2026-04-29 09:11 | 8.72613 | -59.35810 | 33925 ft | 467 kts | 331° |
| 2026-04-29 09:12 | 8.78459 | -59.38717 | 33925 ft | 468 kts | 336° |
| 2026-04-29 09:12 | 8.84488 | -59.41093 | 33925 ft | 468 kts | 339° |
| 2026-04-29 09:13 | 8.90602 | -59.43380 | 33925 ft | 468 kts | 338° |
| 2026-04-29 09:13 | 8.96708 | -59.45700 | 33924 ft | 468 kts | 338° |
| 2026-04-29 09:14 | 9.02783 | -59.48035 | 33925 ft | 469 kts | 338° |
| 2026-04-29 09:14 | 9.08888 | -59.50390 | 33931 ft | 468 kts | 338° |
| 2026-04-29 09:15 | 9.14988 | -59.52744 | 33934 ft | 469 kts | 338° |
| 2026-04-29 09:15 | 9.21055 | -59.55084 | 33933 ft | 469 kts | 338° |
| 2026-04-29 09:16 | 9.27147 | -59.57434 | 33934 ft | 469 kts | 338° |
| 2026-04-29 09:16 | 9.33256 | -59.59792 | 33934 ft | 469 kts | 338° |
| 2026-04-29 09:17 | 9.39363 | -59.62151 | 33935 ft | 469 kts | 338° |
| 2026-04-29 09:17 | 9.45433 | -59.64494 | 33934 ft | 469 kts | 338° |
| 2026-04-29 09:18 | 9.51531 | -59.66852 | 33933 ft | 469 kts | 338° |
| 2026-04-29 09:18 | 9.57629 | -59.69211 | 33934 ft | 469 kts | 338° |
| 2026-04-29 09:19 | 9.63725 | -59.71570 | 33934 ft | 469 kts | 338° |
| 2026-04-29 09:19 | 9.69825 | -59.73930 | 33934 ft | 469 kts | 338° |
| 2026-04-29 09:20 | 9.75883 | -59.76275 | 33934 ft | 469 kts | 338° |
| 2026-04-29 09:20 | 9.81993 | -59.78641 | 33934 ft | 469 kts | 338° |
| 2026-04-29 09:21 | 9.88096 | -59.81005 | 33934 ft | 469 kts | 338° |
| 2026-04-29 09:21 | 9.94162 | -59.83355 | 33940 ft | 469 kts | 338° |
| 2026-04-29 09:22 | 10.00270 | -59.85724 | 33939 ft | 469 kts | 338° |
| 2026-04-29 09:22 | 10.06376 | -59.88093 | 33939 ft | 469 kts | 338° |
| 2026-04-29 09:23 | 10.12442 | -59.90445 | 33940 ft | 469 kts | 338° |
| 2026-04-29 09:23 | 10.18557 | -59.92817 | 33947 ft | 469 kts | 338° |
| 2026-04-29 09:24 | 10.24625 | -59.95173 | 33943 ft | 469 kts | 338° |
| 2026-04-29 09:24 | 10.30742 | -59.97550 | 33945 ft | 469 kts | 338° |
| 2026-04-29 09:25 | 10.36822 | -59.99915 | 33954 ft | 469 kts | 338° |
| 2026-04-29 09:25 | 10.42922 | -60.02288 | 33942 ft | 469 kts | 338° |
| 2026-04-29 09:26 | 10.48001 | -60.04263 | 33940 ft | 470 kts | 338° |
| 2026-04-29 09:26 | 10.54107 | -60.06638 | 33943 ft | 470 kts | 338° |
| 2026-04-29 09:27 | 10.60218 | -60.09019 | 33948 ft | 470 kts | 338° |
| 2026-04-29 09:27 | 10.66334 | -60.11400 | 33949 ft | 470 kts | 338° |
| 2026-04-29 09:28 | 10.72402 | -60.13764 | 33946 ft | 470 kts | 338° |
| 2026-04-29 09:28 | 10.78519 | -60.16147 | 33939 ft | 469 kts | 337° |
| 2026-04-29 09:29 | 10.84597 | -60.18517 | 33939 ft | 469 kts | 337° |
| 2026-04-29 09:29 | 10.93765 | -60.22094 | 33939 ft | 470 kts | 337° |
| 2026-04-29 09:30 | 10.99867 | -60.24476 | 33947 ft | 470 kts | 337° |
| 2026-04-29 09:30 | 11.05978 | -60.26862 | 33939 ft | 470 kts | 337° |
| 2026-04-29 09:31 | 11.12082 | -60.29247 | 33940 ft | 470 kts | 337° |
| 2026-04-29 09:31 | 11.18164 | -60.31627 | 33944 ft | 470 kts | 337° |
| 2026-04-29 09:32 | 11.24277 | -60.34018 | 33939 ft | 469 kts | 337° |
| 2026-04-29 09:32 | 11.30375 | -60.36404 | 33940 ft | 469 kts | 337° |
| 2026-04-29 09:33 | 11.36444 | -60.38780 | 33951 ft | 469 kts | 337° |
| 2026-04-29 09:33 | 11.42553 | -60.41173 | 33945 ft | 469 kts | 337° |
| 2026-04-29 09:34 | 11.48618 | -60.43549 | 33943 ft | 469 kts | 337° |
| 2026-04-29 09:34 | 11.54719 | -60.45940 | 33940 ft | 469 kts | 337° |
| 2026-04-29 09:35 | 11.60825 | -60.48334 | 33949 ft | 469 kts | 337° |
| 2026-04-29 09:35 | 11.66887 | -60.50711 | 33944 ft | 469 kts | 337° |
| 2026-04-29 09:36 | 11.72985 | -60.53106 | 33941 ft | 469 kts | 337° |
| 2026-04-29 09:36 | 11.79063 | -60.55492 | 33943 ft | 469 kts | 337° |
| 2026-04-29 09:37 | 11.85172 | -60.57892 | 33943 ft | 469 kts | 337° |
| 2026-04-29 09:37 | 11.91277 | -60.60293 | 33946 ft | 469 kts | 337° |
| 2026-04-29 09:38 | 11.97343 | -60.62681 | 33949 ft | 469 kts | 337° |
| 2026-04-29 09:38 | 12.03439 | -60.65079 | 33951 ft | 469 kts | 336° |
| 2026-04-29 09:39 | 12.09536 | -60.67480 | 33962 ft | 469 kts | 336° |
| 2026-04-29 09:39 | 12.15596 | -60.69866 | 33959 ft | 469 kts | 336° |
| 2026-04-29 09:40 | 12.21697 | -60.72270 | 33962 ft | 470 kts | 336° |
| 2026-04-29 09:40 | 12.27800 | -60.74677 | 33962 ft | 470 kts | 336° |
| 2026-04-29 09:41 | 12.33914 | -60.77088 | 33970 ft | 470 kts | 336° |
| 2026-04-29 09:41 | 12.39988 | -60.79484 | 33969 ft | 471 kts | 336° |
| 2026-04-29 09:42 | 12.46127 | -60.81906 | 33970 ft | 470 kts | 336° |
| 2026-04-29 09:42 | 12.52208 | -60.84298 | 33973 ft | 471 kts | 336° |
| 2026-04-29 09:43 | 12.58347 | -60.86708 | 33969 ft | 471 kts | 336° |
| 2026-04-29 09:43 | 12.64475 | -60.89116 | 33974 ft | 471 kts | 336° |
| 2026-04-29 09:44 | 12.70574 | -60.91513 | 33978 ft | 471 kts | 336° |
| 2026-04-29 09:44 | 12.76715 | -60.93928 | 33979 ft | 471 kts | 336° |
| 2026-04-29 09:45 | 12.82806 | -60.96325 | 33980 ft | 472 kts | 336° |
| 2026-04-29 09:45 | 12.88942 | -60.98740 | 33981 ft | 472 kts | 336° |
| 2026-04-29 09:46 | 12.95080 | -61.01158 | 33989 ft | 472 kts | 336° |
| 2026-04-29 09:46 | 13.01175 | -61.03561 | 33990 ft | 472 kts | 336° |
| 2026-04-29 09:47 | 13.07319 | -61.05984 | 33990 ft | 472 kts | 336° |
| 2026-04-29 09:47 | 13.13469 | -61.08411 | 33989 ft | 473 kts | 336° |
| 2026-04-29 09:48 | 13.19572 | -61.10819 | 33989 ft | 472 kts | 336° |
| 2026-04-29 09:48 | 13.25715 | -61.13247 | 33990 ft | 472 kts | 336° |
| 2026-04-29 09:49 | 13.31857 | -61.15678 | 33988 ft | 473 kts | 336° |
| 2026-04-29 09:49 | 13.37971 | -61.18097 | 33990 ft | 473 kts | 336° |
| 2026-04-29 09:50 | 13.44113 | -61.20526 | 33989 ft | 473 kts | 336° |
| 2026-04-29 09:50 | 13.50264 | -61.22960 | 33981 ft | 473 kts | 336° |
| 2026-04-29 09:51 | 13.56412 | -61.25397 | 33980 ft | 473 kts | 335° |
| 2026-04-29 09:51 | 13.62526 | -61.27819 | 33980 ft | 473 kts | 336° |
| 2026-04-29 09:52 | 13.68688 | -61.30263 | 33971 ft | 474 kts | 335° |
| 2026-04-29 09:52 | 13.74849 | -61.32710 | 33969 ft | 474 kts | 335° |
| 2026-04-29 09:53 | 13.81003 | -61.35154 | 33971 ft | 474 kts | 335° |
| 2026-04-29 09:53 | 13.87139 | -61.37592 | 33975 ft | 474 kts | 335° |
| 2026-04-29 09:54 | 13.93307 | -61.40043 | 33974 ft | 475 kts | 335° |
| 2026-04-29 09:54 | 13.99475 | -61.42495 | 33971 ft | 475 kts | 335° |
| 2026-04-29 09:55 | 14.05606 | -61.44935 | 33971 ft | 475 kts | 335° |
| 2026-04-29 09:55 | 14.11778 | -61.47392 | 33975 ft | 475 kts | 335° |
| 2026-04-29 09:56 | 14.17954 | -61.49853 | 33981 ft | 475 kts | 335° |
| 2026-04-29 09:56 | 14.24138 | -61.52318 | 33980 ft | 475 kts | 335° |
| 2026-04-29 09:57 | 14.30292 | -61.54773 | 33980 ft | 475 kts | 335° |
| 2026-04-29 09:57 | 14.36461 | -61.57235 | 33988 ft | 475 kts | 335° |
| 2026-04-29 09:58 | 14.42598 | -61.59685 | 33989 ft | 475 kts | 335° |
| 2026-04-29 09:58 | 14.48777 | -61.62160 | 33991 ft | 475 kts | 335° |
| 2026-04-29 09:59 | 14.54913 | -61.64615 | 33999 ft | 475 kts | 335° |
| 2026-04-29 09:59 | 14.61096 | -61.67090 | 33999 ft | 475 kts | 335° |
| 2026-04-29 10:00 | 14.67224 | -61.69542 | 34008 ft | 474 kts | 335° |
| 2026-04-29 10:00 | 14.73393 | -61.72011 | 34008 ft | 474 kts | 335° |
| 2026-04-29 10:01 | 14.79511 | -61.74463 | 34011 ft | 474 kts | 335° |
| 2026-04-29 10:01 | 14.85671 | -61.76933 | 34016 ft | 474 kts | 335° |
| 2026-04-29 10:02 | 14.91818 | -61.79401 | 34016 ft | 474 kts | 335° |
| 2026-04-29 10:02 | 14.97940 | -61.81859 | 34029 ft | 474 kts | 335° |
| 2026-04-29 10:03 | 15.04090 | -61.84328 | 34035 ft | 474 kts | 335° |
| 2026-04-29 10:03 | 15.10246 | -61.86803 | 34037 ft | 474 kts | 335° |
| 2026-04-29 10:04 | 15.16362 | -61.89266 | 34034 ft | 473 kts | 335° |
| 2026-04-29 10:04 | 15.22511 | -61.91743 | 34039 ft | 473 kts | 335° |
| 2026-04-29 10:05 | 15.28643 | -61.94229 | 34039 ft | 473 kts | 334° |
| 2026-04-29 10:05 | 15.34747 | -61.96708 | 34039 ft | 473 kts | 334° |
| 2026-04-29 10:06 | 15.40896 | -61.99204 | 34032 ft | 473 kts | 334° |
| 2026-04-29 10:06 | 15.46993 | -62.01679 | 34035 ft | 473 kts | 334° |
| 2026-04-29 10:07 | 15.53133 | -62.04174 | 34039 ft | 472 kts | 334° |
| 2026-04-29 10:07 | 15.59219 | -62.06649 | 34029 ft | 472 kts | 334° |
| 2026-04-29 10:08 | 15.65347 | -62.09143 | 34017 ft | 472 kts | 334° |
| 2026-04-29 10:08 | 15.71442 | -62.11625 | 34014 ft | 473 kts | 334° |
| 2026-04-29 10:09 | 15.77570 | -62.14120 | 34017 ft | 473 kts | 334° |
| 2026-04-29 10:09 | 15.83700 | -62.16618 | 34019 ft | 472 kts | 334° |
| 2026-04-29 10:10 | 15.89827 | -62.19113 | 34009 ft | 472 kts | 334° |
| 2026-04-29 10:10 | 15.95914 | -62.21600 | 34008 ft | 473 kts | 334° |
| 2026-04-29 10:11 | 16.02049 | -62.24110 | 34010 ft | 473 kts | 334° |
| 2026-04-29 10:11 | 16.08178 | -62.26620 | 34006 ft | 473 kts | 334° |
| 2026-04-29 10:12 | 16.14258 | -62.29107 | 34009 ft | 472 kts | 334° |
| 2026-04-29 10:12 | 16.20373 | -62.31609 | 34007 ft | 472 kts | 334° |
| 2026-04-29 10:13 | 16.26495 | -62.34116 | 34006 ft | 472 kts | 334° |
| 2026-04-29 10:13 | 16.32625 | -62.36628 | 33996 ft | 472 kts | 334° |
| 2026-04-29 10:14 | 16.38694 | -62.39117 | 33991 ft | 472 kts | 334° |
| 2026-04-29 10:14 | 16.44806 | -62.41625 | 33988 ft | 471 kts | 334° |
| 2026-04-29 10:15 | 16.50918 | -62.44136 | 33989 ft | 471 kts | 334° |
| 2026-04-29 10:15 | 16.56986 | -62.46628 | 33989 ft | 471 kts | 334° |
| 2026-04-29 10:16 | 16.62058 | -62.48716 | 33989 ft | 470 kts | 334° |
| 2026-04-29 10:16 | 16.69180 | -62.51646 | 33989 ft | 470 kts | 334° |
| 2026-04-29 10:17 | 16.75233 | -62.54137 | 33990 ft | 470 kts | 334° |
| 2026-04-29 10:17 | 16.81318 | -62.56647 | 33991 ft | 470 kts | 333° |
| 2026-04-29 10:18 | 16.87402 | -62.59161 | 34007 ft | 470 kts | 333° |
| 2026-04-29 10:18 | 16.93444 | -62.61655 | 34008 ft | 469 kts | 333° |
| 2026-04-29 10:19 | 16.99534 | -62.64169 | 34001 ft | 470 kts | 333° |
| 2026-04-29 10:19 | 17.04586 | -62.66256 | 33996 ft | 470 kts | 333° |
| 2026-04-29 10:20 | 17.11667 | -62.69183 | 33999 ft | 469 kts | 333° |
| 2026-04-29 10:20 | 17.16716 | -62.71273 | 33998 ft | 469 kts | 333° |
| 2026-04-29 10:21 | 17.22807 | -62.73794 | 33992 ft | 469 kts | 333° |
| 2026-04-29 10:21 | 17.28884 | -62.76312 | 33991 ft | 469 kts | 333° |
| 2026-04-29 10:22 | 17.34928 | -62.78818 | 33989 ft | 469 kts | 333° |
| 2026-04-29 10:22 | 17.40993 | -62.81334 | 33991 ft | 468 kts | 333° |
| 2026-04-29 10:23 | 17.47022 | -62.83838 | 33990 ft | 469 kts | 333° |
| 2026-04-29 10:23 | 17.53083 | -62.86356 | 33989 ft | 468 kts | 333° |
| 2026-04-29 10:24 | 17.59028 | -62.89093 | 33989 ft | 465 kts | 329° |
| 2026-04-29 10:24 | 17.64854 | -62.92084 | 33989 ft | 465 kts | 328° |
| 2026-04-29 10:25 | 17.70617 | -62.95065 | 33989 ft | 465 kts | 328° |